createdAt,value
2022-11-25T00:00:33.615Z,1003.35
2022-11-25T00:01:33.579Z,1003.34
2022-11-25T00:02:33.579Z,1003.37
2022-11-25T00:03:33.641Z,1003.33
2022-11-25T00:04:33.799Z,1003.32
2022-11-25T00:05:33.433Z,1003.26
2022-11-25T00:06:33.407Z,1003.28
2022-11-25T00:07:33.480Z,1003.25
2022-11-25T00:08:33.425Z,1003.25
2022-11-25T00:09:33.330Z,1003.27
2022-11-25T00:10:33.246Z,1003.25
2022-11-25T00:11:33.211Z,1003.25
2022-11-25T00:12:33.172Z,1003.22
2022-11-25T00:13:33.136Z,1003.23
2022-11-25T00:14:33.321Z,1003.20
2022-11-25T00:16:33.079Z,1003.18
2022-11-25T00:17:32.992Z,1003.15
2022-11-25T00:18:32.960Z,1003.13
2022-11-25T00:19:32.921Z,1003.13
2022-11-25T00:20:32.881Z,1003.13
2022-11-25T00:21:32.840Z,1003.09
2022-11-25T00:22:32.804Z,1003.05
2022-11-25T00:23:33.525Z,1003.04
2022-11-25T00:24:32.882Z,1003.02
2022-11-25T00:25:32.698Z,1003.03
2022-11-25T00:26:32.667Z,1003.00
2022-11-25T00:27:32.632Z,1002.99
2022-11-25T00:28:32.585Z,1002.97
2022-11-25T00:29:32.555Z,1003.01
2022-11-25T00:30:32.514Z,1003.06
2022-11-25T00:31:32.580Z,1003.01
2022-11-25T00:32:32.444Z,1003.01
2022-11-25T00:33:32.398Z,1002.99
2022-11-25T00:34:32.588Z,1002.97
2022-11-25T00:37:15.020Z,1002.89
2022-11-25T00:38:14.919Z,1002.91
2022-11-25T00:40:18.803Z,1002.98
2022-11-25T00:41:18.849Z,1003.00
2022-11-25T00:43:25.674Z,1003.01
2022-11-25T00:44:25.618Z,1002.98
2022-11-25T00:46:18.521Z,1002.95
2022-11-25T00:47:18.405Z,1002.94
2022-11-25T00:51:06.440Z,1003.01
2022-11-25T00:52:06.356Z,1003.01
2022-11-25T00:54:10.276Z,1003.05
2022-11-25T00:55:10.283Z,1002.98
2022-11-25T00:57:03.053Z,1002.96
2022-11-25T00:58:02.994Z,1002.95
2022-11-25T01:00:06.886Z,1002.93
2022-11-25T01:01:06.948Z,1002.94
2022-11-25T01:03:10.820Z,1002.91
2022-11-25T01:04:11.179Z,1002.92
2022-11-25T01:06:14.818Z,1002.91
2022-11-25T01:07:14.610Z,1002.92
2022-11-25T01:08:14.513Z,1002.89
2022-11-25T01:09:15.178Z,1002.87
2022-11-25T01:10:14.479Z,1002.89
2022-11-25T01:11:14.913Z,1002.89
2022-11-25T01:12:14.360Z,1002.88
2022-11-25T01:13:14.326Z,1002.89
2022-11-25T01:14:14.293Z,1002.90
2022-11-25T01:15:14.252Z,1002.96
2022-11-25T01:16:14.402Z,1002.96
2022-11-25T01:17:14.175Z,1002.96
2022-11-25T01:18:14.142Z,1002.97
2022-11-25T01:19:14.100Z,1002.93
2022-11-25T01:20:14.077Z,1002.93
2022-11-25T01:21:14.035Z,1002.91
2022-11-25T01:22:13.993Z,1002.90
2022-11-25T01:23:13.954Z,1002.96
2022-11-25T01:24:13.972Z,1002.97
2022-11-25T01:25:13.886Z,1002.96
2022-11-25T01:26:13.845Z,1002.98
2022-11-25T01:27:13.825Z,1002.96
2022-11-25T01:28:13.791Z,1002.91
2022-11-25T01:29:13.741Z,1002.92
2022-11-25T01:30:13.704Z,1002.90
2022-11-25T01:31:13.699Z,1002.90
2022-11-25T01:32:13.630Z,1002.90
2022-11-25T01:33:13.595Z,1002.87
2022-11-25T01:34:13.555Z,1002.88
2022-11-25T01:35:13.517Z,1002.85
2022-11-25T01:36:13.481Z,1002.85
2022-11-25T01:37:13.522Z,1002.84
2022-11-25T01:38:13.418Z,1002.79
2022-11-25T01:39:13.371Z,1002.81
2022-11-25T01:40:13.381Z,1002.81
2022-11-25T01:41:13.313Z,1002.77
2022-11-25T01:42:13.259Z,1002.81
2022-11-25T01:43:13.226Z,1002.77
2022-11-25T01:44:13.185Z,1002.76
2022-11-25T01:45:13.171Z,1002.74
2022-11-25T01:46:13.179Z,1002.80
2022-11-25T01:47:13.080Z,1002.79
2022-11-25T01:48:13.043Z,1002.83
2022-11-25T01:49:13.000Z,1002.84
2022-11-25T01:50:12.964Z,1002.85
2022-11-25T01:51:13.000Z,1002.85
2022-11-25T01:52:12.904Z,1002.86
2022-11-25T01:53:12.856Z,1002.84
2022-11-25T01:54:13.309Z,1002.85
2022-11-25T01:55:12.915Z,1002.79
2022-11-25T01:56:12.759Z,1002.80
2022-11-25T01:57:12.740Z,1002.82
2022-11-25T01:58:12.673Z,1002.83
2022-11-25T01:59:12.637Z,1002.85
2022-11-25T02:00:12.597Z,1002.82
2022-11-25T02:01:12.661Z,1002.82
2022-11-25T02:02:12.587Z,1002.81
2022-11-25T02:03:12.485Z,1002.76
2022-11-25T02:04:12.449Z,1002.77
2022-11-25T02:05:12.413Z,1002.77
2022-11-25T02:06:12.375Z,1002.78
2022-11-25T02:07:12.467Z,1002.77
2022-11-25T02:08:12.303Z,1002.77
2022-11-25T02:09:12.296Z,1002.75
2022-11-25T02:10:12.426Z,1002.75
2022-11-25T02:11:12.194Z,1002.65
2022-11-25T02:12:12.155Z,1002.66
2022-11-25T02:13:12.119Z,1002.67
2022-11-25T02:14:12.078Z,1002.66
2022-11-25T02:15:12.215Z,1002.70
2022-11-25T02:16:12.047Z,1002.69
2022-11-25T02:17:11.965Z,1002.68
2022-11-25T02:18:11.935Z,1002.69
2022-11-25T02:19:11.897Z,1002.71
2022-11-25T02:20:11.858Z,1002.75
2022-11-25T02:21:11.824Z,1002.76
2022-11-25T02:22:11.784Z,1002.77
2022-11-25T02:23:11.751Z,1002.84
2022-11-25T02:24:11.802Z,1002.82
2022-11-25T02:25:11.696Z,1002.87
2022-11-25T02:26:11.646Z,1002.88
2022-11-25T02:27:11.601Z,1002.85
2022-11-25T02:28:11.563Z,1002.82
2022-11-25T02:29:11.571Z,1002.77
2022-11-25T02:30:11.502Z,1002.78
2022-11-25T02:31:11.452Z,1002.77
2022-11-25T02:32:11.418Z,1002.74
2022-11-25T02:33:11.387Z,1002.75
2022-11-25T02:34:11.340Z,1002.76
2022-11-25T02:35:11.320Z,1002.73
2022-11-25T02:36:11.272Z,1002.73
2022-11-25T02:37:26.133Z,1002.74
2022-11-25T02:38:11.246Z,1002.71
2022-11-25T02:39:11.164Z,1002.70
2022-11-25T02:40:11.130Z,1002.65
2022-11-25T02:41:11.086Z,1002.65
2022-11-25T02:42:11.058Z,1002.64
2022-11-25T02:43:11.016Z,1002.64
2022-11-25T02:44:10.982Z,1002.62
2022-11-25T02:45:10.942Z,1002.59
2022-11-25T02:46:10.956Z,1002.57
2022-11-25T02:47:11.367Z,1002.56
2022-11-25T02:48:10.927Z,1002.59
2022-11-25T02:49:11.106Z,1002.63
2022-11-25T02:50:10.764Z,1002.62
2022-11-25T02:51:10.718Z,1002.62
2022-11-25T02:52:10.683Z,1002.63
2022-11-25T02:53:10.651Z,1002.62
2022-11-25T02:54:10.632Z,1002.59
2022-11-25T02:55:10.575Z,1002.60
2022-11-25T02:56:10.538Z,1002.62
2022-11-25T02:57:10.511Z,1002.63
2022-11-25T02:58:10.497Z,1002.67
2022-11-25T02:59:10.425Z,1002.65
2022-11-25T03:00:10.387Z,1002.65
2022-11-25T03:01:10.933Z,1002.64
2022-11-25T03:03:10.280Z,1002.68
2022-11-25T03:04:10.242Z,1002.72
2022-11-25T03:05:10.203Z,1002.70
2022-11-25T03:06:10.167Z,1002.70
2022-11-25T03:07:10.200Z,1002.77
2022-11-25T03:08:10.107Z,1002.78
2022-11-25T03:09:10.079Z,1002.82
2022-11-25T03:10:10.024Z,1002.83
2022-11-25T03:11:09.986Z,1002.87
2022-11-25T03:12:09.948Z,1002.89
2022-11-25T03:13:09.923Z,1002.89
2022-11-25T03:14:09.886Z,1002.87
2022-11-25T03:15:09.840Z,1002.91
2022-11-25T03:16:09.864Z,1002.91
2022-11-25T03:17:12.422Z,1002.93
2022-11-25T03:18:10.590Z,1002.95
2022-11-25T03:19:09.702Z,1002.91
2022-11-25T03:20:09.660Z,1002.85
2022-11-25T03:21:09.622Z,1002.88
2022-11-25T03:22:09.583Z,1002.89
2022-11-25T03:23:09.546Z,1002.91
2022-11-25T03:24:09.587Z,1002.95
2022-11-25T03:25:09.564Z,1002.98
2022-11-25T03:26:09.618Z,1002.97
2022-11-25T03:27:09.400Z,1003.01
2022-11-25T03:28:09.389Z,1003.03
2022-11-25T03:30:09.292Z,1003.01
2022-11-25T03:31:09.257Z,1003.04
2022-11-25T03:32:09.804Z,1003.02
2022-11-25T03:33:09.182Z,1003.03
2022-11-25T03:34:09.153Z,1003.09
2022-11-25T03:35:09.107Z,1003.14
2022-11-25T03:36:09.070Z,1003.14
2022-11-25T03:37:09.135Z,1003.11
2022-11-25T03:38:09.232Z,1003.13
2022-11-25T03:39:23.850Z,1003.17
2022-11-25T03:40:08.930Z,1003.12
2022-11-25T03:41:08.886Z,1003.13
2022-11-25T03:42:08.853Z,1003.11
2022-11-25T03:43:08.842Z,1003.13
2022-11-25T03:44:10.322Z,1003.14
2022-11-25T03:45:08.783Z,1003.13
2022-11-25T03:46:08.814Z,1003.16
2022-11-25T03:47:08.702Z,1003.14
2022-11-25T03:48:08.640Z,1003.09
2022-11-25T03:49:08.612Z,1003.16
2022-11-25T03:50:08.909Z,1003.15
2022-11-25T03:51:08.603Z,1003.14
2022-11-25T03:52:08.484Z,1003.17
2022-11-25T03:53:08.455Z,1003.16
2022-11-25T03:54:08.416Z,1003.13
2022-11-25T03:55:08.387Z,1003.13
2022-11-25T03:56:08.341Z,1003.14
2022-11-25T03:57:08.303Z,1003.14
2022-11-25T03:58:08.271Z,1003.18
2022-11-25T03:59:08.287Z,1003.20
2022-11-25T04:00:08.209Z,1003.18
2022-11-25T04:01:08.191Z,1003.19
2022-11-25T04:02:08.162Z,1003.23
2022-11-25T04:03:08.084Z,1003.20
2022-11-25T04:04:08.054Z,1003.22
2022-11-25T04:05:08.017Z,1003.23
2022-11-25T04:06:07.979Z,1003.23
2022-11-25T04:07:07.938Z,1003.23
2022-11-25T04:08:07.971Z,1003.23
2022-11-25T04:09:07.864Z,1003.24
2022-11-25T04:10:07.838Z,1003.22
2022-11-25T04:11:07.798Z,1003.23
2022-11-25T04:12:07.754Z,1003.26
2022-11-25T04:13:07.725Z,1003.24
2022-11-25T04:15:07.646Z,1003.26
2022-11-25T04:16:07.612Z,1003.23
2022-11-25T04:17:07.672Z,1003.16
2022-11-25T04:18:07.539Z,1003.26
2022-11-25T04:19:07.499Z,1003.25
2022-11-25T04:21:08.782Z,1003.29
2022-11-25T04:22:07.401Z,1003.30
2022-11-25T04:23:07.357Z,1003.38
2022-11-25T04:24:07.365Z,1003.39
2022-11-25T04:25:07.280Z,1003.34
2022-11-25T04:26:07.263Z,1003.35
2022-11-25T04:27:07.206Z,1003.34
2022-11-25T04:28:07.205Z,1003.31
2022-11-25T04:29:07.135Z,1003.32
2022-11-25T04:30:07.098Z,1003.34
2022-11-25T04:31:07.127Z,1003.36
2022-11-25T04:32:07.032Z,1003.37
2022-11-25T04:33:06.992Z,1003.41
2022-11-25T04:34:06.959Z,1003.37
2022-11-25T04:35:06.929Z,1003.41
2022-11-25T04:36:06.881Z,1003.43
2022-11-25T04:37:06.842Z,1003.45
2022-11-25T04:38:06.868Z,1003.41
2022-11-25T04:39:06.773Z,1003.43
2022-11-25T04:40:06.781Z,1003.48
2022-11-25T04:41:06.727Z,1003.44
2022-11-25T04:42:06.714Z,1003.39
2022-11-25T04:43:10.520Z,1003.41
2022-11-25T04:44:21.196Z,1003.37
2022-11-25T04:45:22.143Z,1003.34
2022-11-25T04:46:14.134Z,1003.35
2022-11-25T04:47:06.556Z,1003.31
2022-11-25T04:48:06.453Z,1003.31
2022-11-25T04:49:06.422Z,1003.31
2022-11-25T04:50:06.365Z,1003.31
2022-11-25T04:51:06.333Z,1003.33
2022-11-25T04:52:06.294Z,1003.35
2022-11-25T04:53:06.307Z,1003.31
2022-11-25T04:54:06.228Z,1003.27
2022-11-25T04:55:06.179Z,1003.26
2022-11-25T04:56:06.258Z,1003.30
2022-11-25T04:57:06.229Z,1003.40
2022-11-25T04:58:06.078Z,1003.44
2022-11-25T04:59:06.038Z,1003.43
2022-11-25T05:00:06.000Z,1003.47
2022-11-25T05:01:05.998Z,1003.44
2022-11-25T05:02:06.002Z,1003.45
2022-11-25T05:03:05.889Z,1003.48
2022-11-25T05:04:05.855Z,1003.51
2022-11-25T05:05:05.821Z,1003.58
2022-11-25T05:06:05.834Z,1003.56
2022-11-25T05:07:05.744Z,1003.62
2022-11-25T05:08:05.713Z,1003.65
2022-11-25T05:09:05.676Z,1003.68
2022-11-25T05:10:05.636Z,1003.65
2022-11-25T05:11:05.817Z,1003.66
2022-11-25T05:12:05.565Z,1003.63
2022-11-25T05:13:15.229Z,1003.66
2022-11-25T05:14:05.490Z,1003.63
2022-11-25T05:15:05.451Z,1003.63
2022-11-25T05:16:05.418Z,1003.66
2022-11-25T05:17:05.465Z,1003.71
2022-11-25T05:20:05.364Z,1003.68
2022-11-25T05:21:05.231Z,1003.67
2022-11-25T05:22:05.192Z,1003.67
2022-11-25T05:23:05.155Z,1003.64
2022-11-25T05:24:05.117Z,1003.65
2022-11-25T05:25:05.098Z,1003.65
2022-11-25T05:26:05.048Z,1003.65
2022-11-25T05:27:05.022Z,1003.61
2022-11-25T05:28:04.969Z,1003.60
2022-11-25T05:29:04.936Z,1003.62
2022-11-25T05:30:04.898Z,1003.63
2022-11-25T05:31:04.929Z,1003.63
2022-11-25T05:32:04.823Z,1003.61
2022-11-25T05:33:04.816Z,1003.67
2022-11-25T05:34:04.753Z,1003.66
2022-11-25T05:35:04.740Z,1003.66
2022-11-25T05:36:05.727Z,1003.65
2022-11-25T05:37:04.645Z,1003.66
